Time;durP1;ratioP1;P1;durP2;ratioP2;P2;SDS_P1;SDS_P2;PMS_P1;PMS_P2;Temp;Humidity;BMP_temperature;BMP_pressure;BME280_temperature;BME280_humidity;BME280_pressure;Samples;Min_cycle;Max_cycle;Signal;HPM_P1;HPM_P2
2021/05/06 00:04:55;;;;;;;6.28;2.30;;;;;;;17.29;55.47;100548.25;5032873;28;20564;-62
2021/05/06 00:34:33;;;;;;;9.77;6.17;;;;;;;17.16;56.56;100568.03;5032420;28;20085;-68
2021/05/06 00:36:59;;;;;;;9.73;6.28;;;;;;;17.14;56.94;100570.78;5032316;28;20445;-63
2021/05/06 00:39:30;;;;;;;13.40;6.72;;;;;;;17.13;56.96;100566.47;5032391;28;20048;-63
2021/05/06 00:55:57;;;;;;;8.90;5.80;;;;;;;17.04;56.45;100568.13;5032063;28;20405;-72
2021/05/06 01:01:10;;;;;;;13.52;6.57;;;;;;;17.02;56.32;100578.00;5032282;28;20104;-62
2021/05/06 01:03:54;;;;;;;9.98;6.43;;;;;;;17.01;56.70;100578.97;5032188;28;20042;-63
2021/05/06 01:06:23;;;;;;;9.85;7.03;;;;;;;17.00;56.94;100587.06;5032020;28;20505;-63
2021/05/06 01:08:59;;;;;;;9.10;5.88;;;;;;;16.97;56.83;100575.75;5032086;28;20072;-63
2021/05/06 01:13:54;;;;;;;11.50;6.15;;;;;;;16.92;57.21;100591.22;5032020;28;20045;-63
2021/05/06 01:16:20;;;;;;;9.13;6.22;;;;;;;16.91;57.47;100594.00;5031764;28;20050;-62
2021/05/06 01:18:46;;;;;;;11.88;6.35;;;;;;;16.89;57.39;100590.63;5031822;28;20065;-63
2021/05/06 01:21:12;;;;;;;10.52;5.80;;;;;;;16.86;57.55;100586.44;5031859;28;20478;-63
2021/05/06 01:23:42;;;;;;;10.13;6.63;;;;;;;16.84;57.74;100588.38;5034598;28;20481;-63
2021/05/06 01:26:29;;;;;;;9.82;6.07;;;;;;;16.84;57.77;100588.38;5035761;28;20041;-79
2021/05/06 01:28:57;;;;;;;11.05;7.22;;;;;;;16.80;58.14;100594.91;5035586;28;20666;-63
2021/05/06 01:31:27;;;;;;;8.73;6.45;;;;;;;16.77;58.44;100597.78;5035546;28;20099;-63
2021/05/06 01:36:31;;;;;;;9.48;6.97;;;;;;;16.74;58.70;100596.25;5035361;28;20258;-63
2021/05/06 01:41:53;;;;;;;11.00;6.90;;;;;;;16.74;58.78;100596.25;5035372;28;20052;-63
2021/05/06 02:00:15;;;;;;;10.93;6.28;;;;;;;16.67;59.61;100603.06;5035102;28;20046;-62
2021/05/06 02:02:43;;;;;;;8.82;5.97;;;;;;;16.67;59.66;100608.38;5035142;28;20049;-62
2021/05/06 02:05:09;;;;;;;7.38;5.30;;;;;;;16.65;59.75;100599.69;5035022;28;20060;-76
2021/05/06 02:07:38;;;;;;;5.43;4.90;;;;;;;16.64;59.47;100604.13;5034956;28;20052;-69
2021/05/06 02:10:06;;;;;;;8.18;5.00;;;;;;;16.64;59.34;100605.94;5034854;28;20053;-63
2021/05/06 02:12:33;;;;;;;12.88;6.32;;;;;;;16.62;59.23;100613.19;5035052;28;20045;-74
2021/05/06 02:15:09;;;;;;;4.95;4.32;;;;;;;16.61;59.21;100619.47;5034839;28;20482;-63
2021/05/06 02:17:35;;;;;;;6.00;3.90;;;;;;;16.59;59.16;100613.44;5034802;28;20057;-63
2021/05/06 02:20:03;;;;;;;5.90;4.43;;;;;;;16.57;58.77;100621.53;5034781;28;20399;-63
2021/05/06 02:22:29;;;;;;;5.15;4.18;;;;;;;16.56;58.91;100622.50;5034300;28;20457;-63
2021/05/06 02:24:55;;;;;;;4.72;3.80;;;;;;;16.55;58.46;100622.63;5034593;28;20494;-62
2021/05/06 02:27:21;;;;;;;6.85;4.20;;;;;;;16.54;58.60;100621.78;5034455;28;20552;-62
2021/05/06 02:29:49;;;;;;;5.25;3.97;;;;;;;16.54;58.49;100626.25;5034664;28;20410;-62
2021/05/06 02:32:15;;;;;;;4.78;3.90;;;;;;;16.54;58.19;100628.91;5034377;28;20068;-63
2021/05/06 02:34:42;;;;;;;4.20;3.00;;;;;;;16.52;58.24;100629.03;5033880;28;20061;-63
2021/05/06 02:37:09;;;;;;;2.90;2.58;;;;;;;16.49;57.93;100632.78;5034325;28;20107;-63
2021/05/06 02:39:35;;;;;;;5.95;2.50;;;;;;;16.48;57.67;100631.09;5034434;28;20056;-62
2021/05/06 02:42:01;;;;;;;2.15;1.67;;;;;;;16.47;57.16;100628.56;5034318;28;20049;-63
2021/05/06 02:44:28;;;;;;;1.33;1.13;;;;;;;16.45;56.47;100631.34;5034328;28;20112;-63
2021/05/06 02:46:55;;;;;;;1.83;1.20;;;;;;;16.45;56.00;100643.75;5034273;28;20045;-62
2021/05/06 02:49:22;;;;;;;2.35;1.15;;;;;;;16.42;55.75;100642.19;5034115;28;20047;-63
2021/05/06 02:51:53;;;;;;;2.75;0.98;;;;;;;16.42;55.26;100639.53;5034391;28;20053;-63
2021/05/06 02:54:20;;;;;;;2.25;0.73;;;;;;;16.41;54.82;100647.63;5034109;28;20057;-63
2021/05/06 03:04:50;;;;;;;2.13;0.85;;;;;;;16.37;54.00;100651.50;5050656;28;20052;-63
2021/05/06 03:07:21;;;;;;;0.98;0.70;;;;;;;16.35;53.79;100653.44;5050513;28;20079;-63
2021/05/06 03:09:58;;;;;;;1.50;0.75;;;;;;;16.35;53.54;100653.44;5050460;28;20087;-63
2021/05/06 03:23:03;;;;;;;1.85;1.05;;;;;;;16.30;52.68;100675.84;5038555;28;20100;-74
2021/05/06 03:25:31;;;;;;;1.48;0.80;;;;;;;16.30;52.60;100675.84;5030447;28;20053;-80
2021/05/06 03:30:40;;;;;;;2.53;1.13;;;;;;;16.30;52.41;100677.63;5030092;28;20478;-63
2021/05/06 03:44:23;;;;;;;0.93;0.70;;;;;;;16.22;51.40;100695.97;5029768;28;20049;-62
2021/05/06 04:27:14;;;;;;;1.67;0.77;;;;;;;16.05;52.20;100742.31;5029189;28;20110;-63
2021/05/06 04:37:58;;;;;;;1.40;0.85;;;;;;;16.04;52.78;100760.00;5029229;28;20069;-63
2021/05/06 04:40:50;;;;;;;1.60;0.80;;;;;;;16.04;52.18;100760.00;5029382;28;20099;-63
2021/05/06 05:04:35;;;;;;;2.33;0.50;;;;;;;16.08;51.47;100789.72;5052148;28;20409;-63
2021/05/06 05:12:54;;;;;;;1.70;0.70;;;;;;;16.10;50.84;100801.88;5032292;28;20053;-63
2021/05/06 05:17:50;;;;;;;4.43;0.80;;;;;;;16.12;50.63;100815.00;5033054;28;20057;-63
2021/05/06 05:25:40;;;;;;;1.65;0.40;;;;;;;16.09;49.63;100826.66;5032488;28;20508;-82
2021/05/06 05:28:08;;;;;;;1.90;0.80;;;;;;;16.10;49.68;100838.06;5032345;28;20486;-63
2021/05/06 05:30:38;;;;;;;6.70;0.68;;;;;;;16.11;49.46;100834.47;5032293;28;20049;-62
2021/05/06 05:33:13;;;;;;;1.17;0.45;;;;;;;16.11;49.39;100837.13;5032297;28;20410;-79
2021/05/06 05:56:45;;;;;;;2.00;0.50;;;;;;;16.24;48.13;100851.09;5041276;28;20060;-65
2021/05/06 05:59:11;;;;;;;0.93;0.57;;;;;;;16.28;47.84;100851.69;5048616;28;20048;-66
2021/05/06 06:01:37;;;;;;;3.13;0.68;;;;;;;16.36;47.30;100845.78;5050936;28;20052;-69
2021/05/06 06:04:03;;;;;;;4.60;0.68;;;;;;;16.40;47.30;100847.22;5050915;28;20129;-71
2021/05/06 06:06:29;;;;;;;2.25;0.50;;;;;;;16.42;47.14;100848.78;5048937;28;20049;-82
2021/05/06 06:08:56;;;;;;;3.22;0.40;;;;;;;16.44;47.04;100852.16;5050361;28;20045;-66
2021/05/06 06:11:22;;;;;;;2.03;0.65;;;;;;;16.48;46.62;100850.09;5043808;28;20490;-68
2021/05/06 06:13:50;;;;;;;1.65;0.50;;;;;;;16.46;46.85;100855.50;5047854;28;20041;-69
2021/05/06 06:16:29;;;;;;;3.55;0.60;;;;;;;16.48;46.32;100861.53;5050626;28;20053;-66
2021/05/06 06:18:57;;;;;;;2.10;0.57;;;;;;;16.47;46.34;100866.97;5049091;28;20072;-75
2021/05/06 06:21:28;;;;;;;3.15;0.73;;;;;;;16.47;46.32;100869.63;5050946;28;20094;-69
2021/05/06 06:23:54;;;;;;;3.92;0.60;;;;;;;16.47;46.51;100870.44;5036604;28;20064;-65
2021/05/06 06:26:21;;;;;;;0.88;0.40;;;;;;;16.48;46.62;100876.56;5050098;28;20053;-66
2021/05/06 06:28:50;;;;;;;2.30;0.60;;;;;;;16.48;46.77;100874.78;5051219;28;20171;-66
2021/05/06 06:31:28;;;;;;;1.05;0.50;;;;;;;16.49;46.52;100868.53;5050280;28;20053;-64
2021/05/06 06:33:56;;;;;;;1.42;0.47;;;;;;;16.52;46.41;100874.53;5045375;28;20078;-65
2021/05/06 06:36:23;;;;;;;3.33;1.13;;;;;;;16.54;46.44;100873.44;5030691;28;20061;-82
2021/05/06 06:38:49;;;;;;;8.07;1.05;;;;;;;16.55;46.33;100872.47;5036137;28;20060;-65
2021/05/06 06:41:16;;;;;;;7.68;1.40;;;;;;;16.56;46.66;100873.34;5049263;28;20422;-65
2021/05/06 06:43:46;;;;;;;2.70;1.20;;;;;;;16.57;46.51;100875.00;5050580;28;20092;-75
2021/05/06 06:46:13;;;;;;;3.15;0.73;;;;;;;16.58;46.66;100874.03;5048048;28;20052;-66
2021/05/06 06:48:39;;;;;;;4.18;1.23;;;;;;;16.59;46.79;100879.22;5050539;28;20137;-65
2021/05/06 06:51:05;;;;;;;2.47;0.70;;;;;;;16.60;46.87;100880.06;5050273;28;20040;-65
2021/05/06 06:53:32;;;;;;;4.38;0.70;;;;;;;16.60;46.96;100888.84;5050034;28;20091;-65
2021/05/06 06:55:58;;;;;;;2.60;0.70;;;;;;;16.61;46.84;100882.59;5050571;28;20045;-65
2021/05/06 06:58:28;;;;;;;4.82;0.80;;;;;;;16.61;46.65;100887.88;5050790;28;20049;-65
2021/05/06 07:00:54;;;;;;;3.08;0.75;;;;;;;16.60;46.88;100898.63;5049982;28;20485;-66
2021/05/06 07:03:20;;;;;;;2.92;0.80;;;;;;;16.58;46.88;100898.75;5050382;28;20045;-66
2021/05/06 07:05:47;;;;;;;2.55;1.10;;;;;;;16.59;46.86;100908.34;5048095;28;20056;-65
2021/05/06 07:08:21;;;;;;;1.85;0.80;;;;;;;16.60;47.22;100899.44;5030088;28;20049;-65
2021/05/06 07:10:53;;;;;;;5.72;1.20;;;;;;;16.64;47.45;100895.56;5030074;28;20049;-66
2021/05/06 07:13:21;;;;;;;5.18;1.10;;;;;;;16.68;47.44;100895.34;5029990;28;20050;-65
2021/05/06 07:15:48;;;;;;;3.85;0.95;;;;;;;16.75;47.14;100900.03;5030071;28;20484;-65
2021/05/06 07:18:15;;;;;;;4.93;1.20;;;;;;;16.85;47.17;100901.94;5029824;28;20473;-65
2021/05/06 07:20:43;;;;;;;4.03;0.95;;;;;;;16.93;47.24;100904.84;5035152;28;20053;-65
2021/05/06 07:23:10;;;;;;;5.20;1.00;;;;;;;17.01;47.26;100909.53;5049234;28;20044;-65
2021/05/06 07:25:40;;;;;;;3.42;0.90;;;;;;;17.04;47.67;100912.78;5031710;28;20586;-65
2021/05/06 07:28:15;;;;;;;3.50;1.00;;;;;;;17.07;47.33;100917.81;5029716;28;20414;-65
2021/05/06 07:30:47;;;;;;;1.83;1.00;;;;;;;17.05;47.21;100927.72;5029438;28;20053;-64
2021/05/06 07:33:16;;;;;;;5.20;0.70;;;;;;;17.05;47.14;100922.41;5031523;28;20410;-65
2021/05/06 07:35:52;;;;;;;3.22;1.05;;;;;;;17.07;47.23;100931.06;5031745;28;20053;-65
2021/05/06 07:38:21;;;;;;;6.70;1.63;;;;;;;17.11;47.08;100931.66;5035020;28;20406;-64
2021/05/06 07:41:00;;;;;;;;;;;;;;;;;;;;;
2021/05/06 07:43:54;;;;;;;2.92;0.80;;;;;;;17.11;47.12;100945.75;5049360;28;20099;-66
2021/05/06 07:46:43;;;;;;;4.13;0.80;;;;;;;17.12;46.81;100949.28;5049497;28;20418;-64
2021/05/06 07:49:16;;;;;;;4.80;0.77;;;;;;;17.17;47.00;100959.50;5049331;28;20401;-65
2021/05/06 07:51:45;;;;;;;3.45;0.90;;;;;;;17.19;46.95;100954.91;5048837;28;20095;-65
2021/05/06 07:54:22;;;;;;;6.68;0.88;;;;;;;17.20;46.87;100964.56;5049257;28;20119;-65
2021/05/06 07:56:50;;;;;;;3.58;0.77;;;;;;;17.19;46.99;100971.69;5040727;28;20079;-64
2021/05/06 07:59:17;;;;;;;1.35;0.73;;;;;;;17.19;46.89;100970.81;5029103;28;20100;-65
2021/05/06 08:01:43;;;;;;;5.97;1.27;;;;;;;17.19;46.77;100973.47;5029174;28;20486;-64
2021/05/06 08:04:12;;;;;;;6.38;1.00;;;;;;;17.20;46.85;100973.34;5043658;28;20053;-84
2021/05/06 08:06:46;;;;;;;2.75;0.80;;;;;;;17.19;46.66;100970.81;5049136;28;20048;-74
2021/05/06 08:09:12;;;;;;;7.07;1.70;;;;;;;17.12;46.58;100979.28;5048567;28;20044;-67
2021/05/06 08:11:38;;;;;;;2.25;0.57;;;;;;;17.04;47.17;100979.06;5048586;28;20049;-66
2021/05/06 08:14:05;;;;;;;3.78;0.80;;;;;;;17.01;46.99;100978.47;5044409;28;20041;-66
2021/05/06 08:16:41;;;;;;;1.30;0.60;;;;;;;16.96;47.23;100968.22;5029053;28;20596;-64
2021/05/06 08:19:07;;;;;;;2.60;0.75;;;;;;;16.94;46.98;100965.69;5028897;28;20053;-64
2021/05/06 08:21:34;;;;;;;2.78;0.80;;;;;;;16.92;47.16;100964.13;5038498;28;20053;-66
2021/05/06 08:24:00;;;;;;;2.15;0.70;;;;;;;16.92;47.36;100969.44;5048331;28;20079;-66
2021/05/06 08:26:27;;;;;;;3.97;0.80;;;;;;;16.92;46.88;100972.91;5048353;28;20045;-67
2021/05/06 08:28:53;;;;;;;9.65;0.82;;;;;;;16.93;46.90;100973.78;5048562;28;20049;-66
2021/05/06 08:31:21;;;;;;;5.43;0.93;;;;;;;16.95;47.10;100974.47;5042725;28;20045;-68
2021/05/06 08:33:47;;;;;;;4.97;1.05;;;;;;;17.02;46.73;100966.88;5028357;28;20410;-65
2021/05/06 08:36:13;;;;;;;4.28;0.80;;;;;;;17.20;46.71;100959.25;5028614;28;20049;-66
2021/05/06 08:38:40;;;;;;;4.40;0.60;;;;;;;17.45;46.39;100947.47;5028824;28;20489;-66
2021/05/06 08:41:06;;;;;;;2.72;0.80;;;;;;;17.73;46.11;100950.50;5028017;28;20132;-66
2021/05/06 08:43:36;;;;;;;2.30;0.60;;;;;;;17.90;45.97;100946.41;5028964;28;20042;-66
2021/05/06 08:46:03;;;;;;;3.72;1.00;;;;;;;18.01;45.58;100950.84;5028417;28;20077;-67
2021/05/06 08:48:32;;;;;;;2.72;0.95;;;;;;;18.01;45.63;100962.28;5028731;28;20041;-67
2021/05/06 08:51:04;;;;;;;4.10;1.20;;;;;;;17.93;45.66;100965.59;5028345;28;20103;-66
2021/05/06 08:53:30;;;;;;;6.80;1.10;;;;;;;17.85;45.41;100965.38;5028732;28;20137;-66
2021/05/06 08:55:57;;;;;;;7.20;1.10;;;;;;;17.79;45.99;100981.81;5028453;28;20046;-66
2021/05/06 08:58:23;;;;;;;7.93;1.08;;;;;;;17.73;46.17;100985.81;5028385;28;20099;-66
2021/05/06 09:00:50;;;;;;;4.65;1.02;;;;;;;17.66;46.02;100983.81;5028400;28;20049;-66
2021/05/06 09:03:16;;;;;;;3.30;1.20;;;;;;;17.60;45.91;100980.69;5028747;28;20472;-66
2021/05/06 09:06:12;;;;;;;4.90;0.88;;;;;;;17.54;46.07;100986.50;5028584;28;20136;-78
2021/05/06 09:08:41;;;;;;;4.68;0.77;;;;;;;17.49;45.97;100996.66;5028252;28;20513;-65
2021/05/06 09:11:08;;;;;;;5.63;1.40;;;;;;;17.45;46.22;101004.00;5027869;28;20115;-66
2021/05/06 09:13:35;;;;;;;3.78;0.93;;;;;;;17.41;45.96;101007.91;5028380;28;20541;-66
2021/05/06 09:16:02;;;;;;;3.30;0.88;;;;;;;17.38;45.93;101007.31;5028126;28;20045;-67
2021/05/06 09:18:36;;;;;;;3.63;0.80;;;;;;;17.38;45.87;100999.34;5028306;28;20053;-66
2021/05/06 09:21:04;;;;;;;3.42;0.80;;;;;;;17.37;45.72;100993.19;5028219;28;20045;-66
2021/05/06 09:23:32;;;;;;;4.15;0.73;;;;;;;17.41;45.62;100999.09;5028510;28;20045;-66
2021/05/06 09:26:06;;;;;;;2.40;0.80;;;;;;;17.44;45.42;100994.38;5028783;28;20100;-67
2021/05/06 09:28:34;;;;;;;1.98;0.60;;;;;;;17.48;45.41;100992.31;5028556;28;20045;-66
2021/05/06 09:31:05;;;;;;;3.08;1.23;;;;;;;17.52;45.62;100988.47;5045887;28;20132;-66
2021/05/06 09:33:37;;;;;;;2.35;0.70;;;;;;;17.52;45.36;100983.16;5048226;28;20167;-66
2021/05/06 09:36:10;;;;;;;3.80;1.27;;;;;;;17.55;45.04;100987.38;5047970;28;20041;-66
2021/05/06 09:38:47;;;;;;;2.15;1.33;;;;;;;17.63;45.06;100974.28;5029576;28;20551;-66
2021/05/06 09:41:20;;;;;;;4.28;1.02;;;;;;;17.91;44.43;100969.31;5027711;28;20458;-66
2021/05/06 09:43:47;;;;;;;2.50;0.82;;;;;;;18.13;44.64;100980.81;5029279;28;20053;-66
2021/05/06 09:46:42;;;;;;;4.13;1.05;;;;;;;18.47;43.94;100993.88;5031649;28;20088;-66
2021/05/06 09:49:14;;;;;;;8.00;1.20;;;;;;;18.81;43.50;100986.44;5031640;28;20045;-66
2021/05/06 09:51:48;;;;;;;6.35;0.80;;;;;;;18.94;43.33;100964.97;5031521;28;20041;-66
2021/05/06 09:54:18;;;;;;;6.63;1.00;;;;;;;18.89;43.28;100962.69;5031280;28;20120;-66
2021/05/06 09:56:46;;;;;;;1.85;0.60;;;;;;;18.99;42.82;100954.75;5031708;28;20505;-66
2021/05/06 09:59:27;;;;;;;3.03;0.70;;;;;;;19.01;42.67;100944.00;5031464;28;20115;-66
2021/05/06 10:01:53;;;;;;;3.08;1.20;;;;;;;19.09;42.28;100955.59;5041892;28;20106;-65
2021/05/06 10:04:26;;;;;;;7.68;1.27;;;;;;;19.07;42.37;100951.41;5051002;28;20052;-65
2021/05/06 10:07:09;;;;;;;3.17;1.02;;;;;;;19.01;42.38;100954.66;5051070;28;20057;-64
2021/05/06 10:09:48;;;;;;;4.45;1.38;;;;;;;19.13;42.16;100947.38;5051769;28;20413;-65
2021/05/06 10:12:15;;;;;;;5.18;1.05;;;;;;;19.36;41.56;100950.59;5035284;28;20049;-65
2021/05/06 10:14:42;;;;;;;4.32;0.93;;;;;;;19.52;41.35;100952.72;5031681;28;20050;-65
2021/05/06 10:17:11;;;;;;;4.30;1.30;;;;;;;19.79;40.98;100951.16;5031066;28;20072;-80
2021/05/06 10:19:39;;;;;;;2.42;1.05;;;;;;;19.99;40.15;100958.16;5031562;28;20490;-70
2021/05/06 10:22:08;;;;;;;5.43;1.00;;;;;;;20.25;39.77;100964.69;5031011;28;20111;-65
2021/05/06 10:24:35;;;;;;;4.25;1.17;;;;;;;20.41;40.13;100961.44;5038454;28;20088;-65
2021/05/06 10:27:02;;;;;;;8.23;1.45;;;;;;;20.46;39.66;100957.31;5048455;28;20056;-64
2021/05/06 10:29:31;;;;;;;5.45;1.13;;;;;;;20.38;39.38;100968.72;5047287;28;20049;-65
2021/05/06 10:31:58;;;;;;;1.92;0.85;;;;;;;20.40;39.19;100968.56;5045561;28;20452;-64
2021/05/06 10:34:26;;;;;;;4.10;1.58;;;;;;;20.45;38.71;100966.28;5031724;28;20045;-65
2021/05/06 10:37:23;;;;;;;4.50;1.10;;;;;;;20.47;38.99;100966.16;5035305;28;20051;-65
2021/05/06 10:39:49;;;;;;;;;;;;;;;20.63;38.58;100947.72;5026640;28;20049;-64
2021/05/06 10:42:42;;;;;;;2.38;1.00;;;;;;;20.79;38.64;100940.94;5032492;28;20365;-65
2021/05/06 10:45:24;;;;;;;;;;;;;;;;;;;;;
2021/05/06 10:47:53;;;;;;;4.40;0.80;;;;;;;21.17;38.03;100929.16;5035827;28;20515;-68
2021/05/06 10:50:35;;;;;;;3.80;0.90;;;;;;;21.29;38.12;100924.44;5049445;28;20073;-64
2021/05/06 10:56:38;;;;;;;3.05;0.93;;;;;;;21.54;36.96;100906.78;5036765;28;20060;-65
2021/05/06 10:59:22;;;;;;;4.88;0.90;;;;;;;21.69;36.45;100900.91;5028698;28;20049;-64
2021/05/06 11:01:50;;;;;;;4.00;0.60;;;;;;;21.73;36.62;100894.25;5028400;28;20461;-65
2021/05/06 11:04:30;;;;;;;1.98;0.65;;;;;;;21.83;36.16;100895.00;5030243;28;20124;-65
2021/05/06 11:07:10;;;;;;;3.22;0.93;;;;;;;21.99;35.90;100874.72;5030207;28;20053;-64
2021/05/06 11:09:43;;;;;;;5.28;1.00;;;;;;;22.08;36.33;100876.44;5035505;28;20053;-65
2021/05/06 11:12:16;;;;;;;5.07;0.80;;;;;;;22.16;35.68;100871.13;5048544;28;20179;-68
2021/05/06 11:15:01;;;;;;;2.53;0.80;;;;;;;22.28;35.67;100861.00;5050027;28;20052;-66
2021/05/06 11:17:33;;;;;;;3.20;0.80;;;;;;;22.41;35.77;100855.22;5049658;28;20575;-67
2021/05/06 11:20:01;;;;;;;5.97;1.48;;;;;;;22.52;35.76;100861.28;5047040;28;20037;-69
2021/05/06 11:22:46;;;;;;;1.88;0.80;;;;;;;22.63;35.82;100869.81;5036853;28;20099;-67
2021/05/06 11:40:16;;;;;;;2.90;1.33;;;;;;;22.98;34.58;100886.63;4942428;28;20081;-65
2021/05/06 11:42:53;;;;;;;4.25;0.95;;;;;;;23.10;34.64;100891.66;4948496;28;20055;-66
2021/05/06 11:49:04;;;;;;;2.80;0.98;;;;;;;23.10;35.06;100880.97;4948967;28;20037;-63
2021/05/06 11:51:38;;;;;;;2.30;0.90;;;;;;;23.17;35.13;100876.63;4966750;28;20051;-61
2021/05/06 11:54:05;;;;;;;4.53;1.10;;;;;;;23.22;35.25;100874.28;5038203;28;20037;-62
2021/05/06 11:56:39;;;;;;;4.53;1.20;;;;;;;22.93;35.85;100888.09;5049294;28;20049;-72
2021/05/06 11:59:07;;;;;;;6.10;1.30;;;;;;;22.87;35.62;100886.09;5046278;28;20044;-65
2021/05/06 12:01:34;;;;;;;6.95;1.38;;;;;;;23.02;35.83;100886.28;5051151;28;20055;-63
2021/05/06 12:04:01;;;;;;;4.15;1.27;;;;;;;23.12;35.34;100884.28;5064370;28;20127;-61
2021/05/06 12:06:35;;;;;;;5.05;1.23;;;;;;;23.21;35.54;100891.38;5046128;28;20493;-60
2021/05/06 12:09:04;;;;;;;2.53;1.33;;;;;;;23.28;35.54;100883.50;5030434;28;20084;-61
2021/05/06 12:11:36;;;;;;;5.97;1.35;;;;;;;23.36;35.14;100877.31;5028721;28;20085;-61
2021/05/06 12:14:03;;;;;;;3.90;1.10;;;;;;;23.44;35.29;100877.31;5039888;28;20209;-60
2021/05/06 12:16:30;;;;;;;7.40;1.58;;;;;;;23.54;35.30;100871.75;5069131;28;20471;-61
2021/05/06 12:19:09;;;;;;;3.85;1.20;;;;;;;23.60;35.37;100858.56;5068802;28;20045;-61
2021/05/06 12:21:53;;;;;;;3.97;1.23;;;;;;;23.64;35.22;100851.84;5068645;28;20052;-62
2021/05/06 12:24:43;;;;;;;4.65;1.27;;;;;;;23.68;34.81;100843.44;5068675;28;20097;-61
2021/05/06 12:27:19;;;;;;;10.32;1.67;;;;;;;23.74;34.59;100834.72;5031350;28;20045;-62
2021/05/06 12:29:47;;;;;;;2.72;1.20;;;;;;;23.67;34.82;100839.94;5028338;28;20049;-60
2021/05/06 12:32:21;;;;;;;5.00;1.67;;;;;;;23.57;34.74;100828.59;5036749;28;20087;-59
2021/05/06 12:34:50;;;;;;;4.05;1.10;;;;;;;23.50;34.55;100833.75;5046538;28;20089;-59
2021/05/06 12:37:21;;;;;;;2.90;1.20;;;;;;;23.41;35.05;100837.47;5047739;28;20508;-61
2021/05/06 12:39:48;;;;;;;3.47;1.65;;;;;;;23.24;35.38;100834.81;5048330;28;20052;-61
2021/05/06 12:42:15;;;;;;;4.00;1.25;;;;;;;23.14;35.52;100826.06;5043832;28;20048;-61
2021/05/06 12:44:47;;;;;;;7.30;1.90;;;;;;;23.28;35.28;100806.69;5047634;28;20103;-61
2021/05/06 12:47:14;;;;;;;4.95;1.60;;;;;;;23.33;35.25;100790.13;5044716;28;20489;-62
2021/05/06 12:49:42;;;;;;;5.57;1.10;;;;;;;23.39;34.88;100791.25;5047971;28;20080;-61
2021/05/06 12:52:28;;;;;;;4.13;1.58;;;;;;;23.45;35.05;100794.13;5047635;28;20053;-62
2021/05/06 12:54:55;;;;;;;8.10;1.58;;;;;;;23.52;35.24;100796.94;5045416;28;20124;-62
2021/05/06 12:57:22;;;;;;;3.97;1.52;;;;;;;23.57;35.77;100775.81;5045223;28;20041;-62
2021/05/06 12:59:49;;;;;;;6.03;2.00;;;;;;;23.57;36.02;100775.81;5047734;28;20052;-62
2021/05/06 13:02:17;;;;;;;7.68;1.48;;;;;;;23.58;35.75;100764.13;5047603;28;20049;-61
2021/05/06 13:04:50;;;;;;;8.10;1.90;;;;;;;23.60;35.92;100772.81;5047814;28;20041;-63
2021/05/06 13:07:19;;;;;;;5.35;1.60;;;;;;;23.58;36.02;100765.94;5045620;28;20724;-58
2021/05/06 13:09:48;;;;;;;5.93;1.92;;;;;;;23.52;35.96;100782.72;5047914;28;20095;-61
2021/05/06 13:12:16;;;;;;;7.50;1.70;;;;;;;23.42;35.90;100772.19;5044582;28;20045;-59
2021/05/06 13:15:03;;;;;;;5.25;2.05;;;;;;;23.31;35.92;100776.91;5046654;28;20045;-62
2021/05/06 13:17:30;;;;;;;4.13;1.55;;;;;;;23.24;35.85;100788.47;5046071;28;20056;-60
2021/05/06 13:19:58;;;;;;;8.07;1.52;;;;;;;23.18;36.03;100775.75;5051279;28;20490;-61
2021/05/06 13:22:25;;;;;;;2.40;1.40;;;;;;;23.12;36.16;100780.75;5052045;28;20057;-61
2021/05/06 13:24:52;;;;;;;5.53;1.58;;;;;;;23.04;35.85;100775.38;5051726;28;20049;-60
2021/05/06 13:27:22;;;;;;;10.02;1.90;;;;;;;22.98;36.41;100774.22;5051893;28;20063;-64
2021/05/06 13:29:59;;;;;;;5.07;1.35;;;;;;;22.97;36.26;100763.69;5051887;28;20041;-61
2021/05/06 13:32:35;;;;;;;6.85;1.60;;;;;;;22.94;36.52;100758.66;5050890;28;20397;-64
2021/05/06 13:35:04;;;;;;;7.38;1.77;;;;;;;22.88;36.60;100757.50;5030616;28;20046;-69
2021/05/06 13:37:38;;;;;;;7.20;1.73;;;;;;;22.78;36.29;100756.84;5032009;28;20062;-62
2021/05/06 13:40:06;;;;;;;5.13;1.67;;;;;;;22.73;36.41;100761.81;5031856;28;20512;-63
2021/05/06 13:42:32;;;;;;;5.30;1.30;;;;;;;22.64;36.94;100769.03;5031686;28;20052;-67
2021/05/06 13:44:59;;;;;;;4.80;1.90;;;;;;;22.57;36.70;100771.50;5032153;28;20046;-62
2021/05/06 13:47:26;;;;;;;5.07;1.80;;;;;;;22.52;37.06;100765.00;5031928;28;20544;-63
2021/05/06 13:49:52;;;;;;;9.52;1.73;;;;;;;22.48;37.05;100757.28;5031875;28;20497;-63
2021/05/06 13:52:19;;;;;;;4.40;1.60;;;;;;;22.42;36.96;100749.94;5045400;28;20072;-63
2021/05/06 13:54:47;;;;;;;5.28;1.77;;;;;;;22.38;36.97;100751.25;5051850;28;20053;-63
2021/05/06 13:57:13;;;;;;;4.93;1.50;;;;;;;22.38;37.29;100740.56;5051044;28;20061;-68
2021/05/06 13:59:39;;;;;;;4.30;1.73;;;;;;;22.38;37.57;100729.88;5051468;28;20045;-63
2021/05/06 14:02:07;;;;;;;6.72;1.80;;;;;;;22.32;37.74;100728.69;5051148;28;20044;-63
2021/05/06 14:04:33;;;;;;;5.72;1.95;;;;;;;22.28;37.43;100721.13;5050711;28;20498;-63
2021/05/06 14:07:00;;;;;;;4.68;1.60;;;;;;;22.27;37.81;100723.00;5051362;28;20049;-63
2021/05/06 14:09:26;;;;;;;9.73;1.88;;;;;;;22.25;37.59;100719.63;5050740;28;20421;-62
2021/05/06 14:11:52;;;;;;;4.68;1.60;;;;;;;22.24;37.69;100728.66;5051045;28;20060;-60
2021/05/06 14:14:19;;;;;;;4.35;1.85;;;;;;;22.26;37.77;100715.09;5051184;28;20068;-61
2021/05/06 14:16:46;;;;;;;6.55;1.55;;;;;;;22.28;37.79;100697.09;5051071;28;20052;-60
2021/05/06 14:19:13;;;;;;;5.20;1.50;;;;;;;22.27;38.13;100701.59;5050946;28;20540;-61
2021/05/06 14:21:41;;;;;;;2.97;1.45;;;;;;;22.27;38.07;100701.59;5041967;28;20053;-64
2021/05/06 14:24:12;;;;;;;7.57;1.95;;;;;;;22.26;37.63;100715.09;5030677;28;20056;-61
2021/05/06 14:26:39;;;;;;;6.05;2.25;;;;;;;22.23;37.94;100708.25;5031039;28;20049;-62
2021/05/06 14:29:05;;;;;;;5.35;2.05;;;;;;;22.23;37.99;100696.75;5031126;28;20532;-62
2021/05/06 14:31:32;;;;;;;7.20;1.80;;;;;;;22.23;37.70;100694.88;5030142;28;20054;-71
2021/05/06 14:33:58;;;;;;;3.88;1.70;;;;;;;22.22;38.18;100703.94;5030886;28;20045;-62
2021/05/06 14:36:24;;;;;;;6.47;1.58;;;;;;;22.18;38.32;100705.25;5030762;28;20042;-62
2021/05/06 14:38:51;;;;;;;6.63;1.80;;;;;;;22.13;38.19;100691.53;5035947;28;20482;-62
2021/05/06 14:41:17;;;;;;;9.57;1.83;;;;;;;22.10;38.65;100682.00;5049761;28;20044;-61
2021/05/06 14:43:43;;;;;;;5.22;1.65;;;;;;;22.08;38.80;100683.19;5050421;28;20045;-62
2021/05/06 14:46:09;;;;;;;7.03;1.90;;;;;;;22.08;38.83;100693.88;5050717;28;20486;-62
2021/05/06 14:48:37;;;;;;;6.43;2.13;;;;;;;22.05;39.26;100687.00;5048757;28;20037;-61
2021/05/06 14:51:03;;;;;;;7.43;2.30;;;;;;;21.99;39.22;100683.19;5049825;28;20049;-64
2021/05/06 14:53:30;;;;;;;10.38;1.85;;;;;;;21.95;39.50;100687.19;5046516;28;20098;-65
2021/05/06 14:55:58;;;;;;;4.43;1.70;;;;;;;21.95;39.12;100684.50;5046470;28;20040;-62
2021/05/06 14:58:28;;;;;;;5.70;1.77;;;;;;;21.94;39.52;100682.81;5040178;28;20060;-61
2021/05/06 15:00:55;;;;;;;5.53;1.50;;;;;;;21.94;39.47;100677.50;5050031;28;20048;-61
2021/05/06 15:03:26;;;;;;;4.72;2.10;;;;;;;21.92;39.16;100671.47;5050098;28;20183;-61
2021/05/06 15:05:53;;;;;;;7.78;1.85;;;;;;;21.90;39.66;100672.63;5050558;28;20057;-62
2021/05/06 15:08:19;;;;;;;7.53;2.00;;;;;;;21.88;39.16;100672.78;5050122;28;20129;-60
2021/05/06 15:10:45;;;;;;;6.05;1.80;;;;;;;21.90;39.38;100669.94;5049869;28;20151;-59
2021/05/06 15:13:11;;;;;;;6.03;2.40;;;;;;;21.89;39.79;100670.94;5042861;28;20050;-58
2021/05/06 15:15:37;;;;;;;5.85;1.70;;;;;;;21.85;39.48;100665.09;5029853;28;20049;-59
2021/05/06 15:18:04;;;;;;;5.38;1.60;;;;;;;21.83;39.71;100659.09;5030221;28;20111;-58
2021/05/06 15:20:31;;;;;;;7.82;1.75;;;;;;;21.79;39.71;100665.75;5030069;28;20099;-59
2021/05/06 15:22:57;;;;;;;6.07;1.75;;;;;;;21.73;39.64;100658.41;5030298;28;20137;-58
2021/05/06 15:25:24;;;;;;;6.28;2.22;;;;;;;21.66;39.90;100659.03;5029869;28;20049;-59
2021/05/06 15:27:51;;;;;;;5.55;1.40;;;;;;;21.60;39.50;100656.16;5030096;28;20041;-61
2021/05/06 15:30:21;;;;;;;6.22;1.48;;;;;;;21.56;40.00;100647.66;5029767;28;20041;-61